Time,TemperatureF,DewpointF,PressureIn,WindDirection,WindDirectionDegrees,WindSpeedMPH,WindSpeedGustMPH,Humidity,HourlyPrecipIn,Conditions,Clouds,dailyrainin,SolarRadiationWatts/m^2,SoftwareType,DateUTC
2013-05-05 00:01:00,55.0,26.0,-100.00,ENE,60,25.0,38.0,32,0.00,,,-99.99,0.000000,,2013-05-05 07:01:00,
2013-05-05 00:11:00,55.0,26.0,-100.00,ENE,60,25.0,38.0,32,0.00,,,-99.99,0.000000,,2013-05-05 07:11:00,
2013-05-05 00:21:00,55.0,26.0,-100.00,ENE,60,25.0,38.0,32,0.00,,,-99.99,0.000000,,2013-05-05 07:21:00,
2013-05-05 00:32:00,55.0,26.0,-100.00,ENE,60,25.0,38.0,32,0.00,,,-99.99,0.000000,,2013-05-05 07:32:00,
2013-05-05 00:52:00,54.0,25.0,-100.00,ENE,61,22.0,38.0,32,0.00,,,0.00,0.000000,,2013-05-05 07:52:00,
2013-05-05 01:02:00,54.0,25.0,-100.00,ENE,61,22.0,38.0,32,0.00,,,0.00,0.000000,,2013-05-05 08:02:00,
2013-05-05 01:11:00,54.0,25.0,-100.00,ENE,61,22.0,38.0,32,0.00,,,0.00,0.000000,,2013-05-05 08:11:00,
2013-05-05 01:21:00,54.0,25.0,-100.00,ENE,61,22.0,38.0,32,0.00,,,0.00,0.000000,,2013-05-05 08:21:00,
2013-05-05 01:31:00,54.0,25.0,-100.00,ENE,61,22.0,38.0,32,0.00,,,0.00,0.000000,,2013-05-05 08:31:00,
2013-05-05 01:53:00,54.0,26.0,-100.00,NE,55,25.0,43.0,33,0.00,,,0.00,0.000000,,2013-05-05 08:53:00,
2013-05-05 02:01:00,54.0,26.0,-100.00,NE,55,25.0,43.0,33,0.00,,,0.00,0.000000,,2013-05-05 09:01:00,
2013-05-05 02:11:00,54.0,26.0,-100.00,NE,55,25.0,43.0,33,0.00,,,0.00,0.000000,,2013-05-05 09:11:00,
2013-05-05 02:21:00,54.0,26.0,-100.00,NE,55,25.0,43.0,33,0.00,,,0.00,0.000000,,2013-05-05 09:21:00,
2013-05-05 02:32:00,54.0,26.0,-100.00,NE,55,25.0,43.0,33,0.00,,,0.00,0.000000,,2013-05-05 09:32:00,
2013-05-05 02:52:00,53.0,25.0,-100.00,NE,56,22.0,34.0,34,0.00,,,0.00,0.000000,,2013-05-05 09:52:00,
2013-05-05 03:02:00,53.0,25.0,-100.00,NE,56,22.0,34.0,34,0.00,,,0.00,0.000000,,2013-05-05 10:02:00,
2013-05-05 03:12:00,53.0,25.0,-100.00,NE,56,22.0,34.0,34,0.00,,,0.00,0.000000,,2013-05-05 10:12:00,
2013-05-05 03:22:00,53.0,25.0,-100.00,NE,56,22.0,34.0,34,0.00,,,0.00,0.000000,,2013-05-05 10:22:00,
2013-05-05 03:32:00,53.0,25.0,-100.00,NE,56,22.0,34.0,34,0.00,,,0.00,0.000000,,2013-05-05 10:32:00,
2013-05-05 03:53:00,52.0,26.0,-100.00,NE,54,17.0,29.0,36,0.00,,,0.00,0.000000,,2013-05-05 10:53:00,
2013-05-05 04:01:00,52.0,26.0,-100.00,NE,54,17.0,29.0,36,0.00,,,0.00,0.000000,,2013-05-05 11:01:00,
2013-05-05 04:11:00,52.0,26.0,-100.00,NE,54,17.0,29.0,36,0.00,,,0.00,0.000000,,2013-05-05 11:11:00,
2013-05-05 04:21:00,52.0,26.0,-100.00,NE,54,17.0,29.0,36,0.00,,,0.00,0.000000,,2013-05-05 11:21:00,
2013-05-05 04:32:00,52.0,26.0,-100.00,NE,54,17.0,29.0,36,0.00,,,0.00,0.000000,,2013-05-05 11:32:00,
2013-05-05 04:52:00,51.0,26.0,-100.00,ENE,60,16.0,30.0,37,0.00,,,0.00,0.000000,,2013-05-05 11:52:00,
2013-05-05 05:01:00,51.0,26.0,-100.00,ENE,60,16.0,30.0,37,0.00,,,0.00,0.000000,,2013-05-05 12:01:00,
2013-05-05 05:11:00,51.0,26.0,-100.00,ENE,60,16.0,30.0,37,0.00,,,0.00,0.000000,,2013-05-05 12:11:00,
2013-05-05 05:21:00,51.0,26.0,-100.00,ENE,60,16.0,30.0,37,0.00,,,0.00,0.000000,,2013-05-05 12:21:00,
2013-05-05 05:31:00,51.0,26.0,-100.00,ENE,60,16.0,30.0,37,0.00,,,0.00,0.000000,,2013-05-05 12:31:00,
2013-05-05 05:52:00,52.0,27.0,-100.00,NE,55,19.0,32.0,37,0.00,,,0.00,0.000000,,2013-05-05 12:52:00,
2013-05-05 06:01:00,52.0,27.0,-100.00,NE,55,19.0,32.0,37,0.00,,,0.00,0.000000,,2013-05-05 13:01:00,
2013-05-05 06:11:00,52.0,27.0,-100.00,NE,55,19.0,32.0,37,0.00,,,0.00,0.000000,,2013-05-05 13:11:00,
2013-05-05 06:21:00,52.0,27.0,-100.00,NE,55,19.0,32.0,37,0.00,,,0.00,0.000000,,2013-05-05 13:21:00,
2013-05-05 06:32:00,52.0,27.0,-100.00,NE,55,19.0,32.0,37,0.00,,,0.00,0.000000,,2013-05-05 13:32:00,
2013-05-05 06:52:00,48.0,29.0,-100.00,NNE,15,11.0,29.0,48,0.00,,,0.00,20.000000,,2013-05-05 13:52:00,
2013-05-05 07:01:00,48.0,29.0,-100.00,NNE,15,11.0,29.0,48,0.00,,,0.00,20.000000,,2013-05-05 14:01:00,
2013-05-05 07:11:00,48.0,29.0,-100.00,NNE,15,11.0,29.0,48,0.00,,,0.00,20.000000,,2013-05-05 14:11:00,
2013-05-05 07:21:00,48.0,29.0,-100.00,NNE,15,11.0,29.0,48,0.00,,,0.00,20.000000,,2013-05-05 14:21:00,
2013-05-05 07:31:00,48.0,29.0,-100.00,NNE,15,11.0,29.0,48,0.00,,,0.00,20.000000,,2013-05-05 14:31:00,
2013-05-05 07:52:00,50.0,29.0,-100.00,NNE,23,18.0,29.0,45,0.00,,,-99.99,155.000000,,2013-05-05 14:52:00,
2013-05-05 08:01:00,50.0,29.0,-100.00,NNE,23,18.0,29.0,45,0.00,,,-99.99,155.000000,,2013-05-05 15:01:00,
2013-05-05 08:11:00,50.0,29.0,-100.00,NNE,23,18.0,29.0,45,0.00,,,-99.99,155.000000,,2013-05-05 15:11:00,
2013-05-05 08:21:00,50.0,29.0,-100.00,NNE,23,18.0,29.0,45,0.00,,,-99.99,155.000000,,2013-05-05 15:21:00,
2013-05-05 08:32:00,50.0,29.0,-100.00,NNE,23,18.0,29.0,45,0.00,,,-99.99,155.000000,,2013-05-05 15:32:00,
2013-05-05 08:53:00,52.0,29.0,-100.00,NNE,28,23.0,34.0,41,0.00,,,0.00,369.000000,,2013-05-05 15:53:00,
2013-05-05 09:03:00,52.0,29.0,-100.00,NNE,28,23.0,34.0,41,0.00,,,0.00,369.000000,,2013-05-05 16:03:00,
2013-05-05 09:12:00,52.0,29.0,-100.00,NNE,28,23.0,34.0,41,0.00,,,0.00,369.000000,,2013-05-05 16:12:00,
2013-05-05 09:22:00,52.0,29.0,-100.00,NNE,28,23.0,34.0,41,0.00,,,0.00,369.000000,,2013-05-05 16:22:00,
2013-05-05 09:32:00,52.0,29.0,-100.00,NNE,28,23.0,34.0,41,0.00,,,0.00,369.000000,,2013-05-05 16:32:00,
2013-05-05 09:53:00,55.0,31.0,-100.00,NNE,25,18.0,28.0,39,0.00,,,0.00,550.000000,,2013-05-05 16:53:00,
2013-05-05 10:02:00,55.0,31.0,-100.00,NNE,25,18.0,28.0,39,0.00,,,0.00,550.000000,,2013-05-05 17:02:00,
2013-05-05 10:12:00,55.0,31.0,-100.00,NNE,25,18.0,28.0,39,0.00,,,0.00,550.000000,,2013-05-05 17:12:00,
2013-05-05 10:23:00,55.0,31.0,-100.00,NNE,25,18.0,28.0,39,0.00,,,0.00,550.000000,,2013-05-05 17:23:00,
2013-05-05 10:31:00,55.0,31.0,-100.00,NNE,25,18.0,28.0,39,0.00,,,0.00,550.000000,,2013-05-05 17:31:00,
2013-05-05 10:52:00,58.0,31.0,-100.00,NE,37,21.0,27.0,35,0.00,,,0.00,708.000000,,2013-05-05 17:52:00,
2013-05-05 11:01:00,58.0,31.0,-100.00,NE,37,21.0,27.0,35,0.00,,,0.00,708.000000,,2013-05-05 18:01:00,
2013-05-05 11:11:00,58.0,31.0,-100.00,NE,37,21.0,27.0,35,0.00,,,0.00,708.000000,,2013-05-05 18:11:00,
2013-05-05 11:21:00,58.0,31.0,-100.00,NE,37,21.0,27.0,35,0.00,,,0.00,708.000000,,2013-05-05 18:21:00,
2013-05-05 11:31:00,58.0,31.0,-100.00,NE,37,21.0,27.0,35,0.00,,,0.00,708.000000,,2013-05-05 18:31:00,
2013-05-05 11:52:00,61.0,32.0,-100.00,NE,39,16.0,29.0,33,0.00,,,0.00,830.000000,,2013-05-05 18:52:00,
2013-05-05 12:01:00,61.0,32.0,-100.00,NE,39,16.0,29.0,33,0.00,,,0.00,830.000000,,2013-05-05 19:01:00,
2013-05-05 12:11:00,61.0,32.0,-100.00,NE,39,16.0,29.0,33,0.00,,,0.00,830.000000,,2013-05-05 19:11:00,
2013-05-05 12:21:00,61.0,32.0,-100.00,NE,39,16.0,29.0,33,0.00,,,0.00,830.000000,,2013-05-05 19:21:00,
2013-05-05 12:32:00,61.0,32.0,-100.00,NE,39,16.0,29.0,33,0.00,,,0.00,830.000000,,2013-05-05 19:32:00,
2013-05-05 12:52:00,63.0,31.0,-100.00,NE,34,17.0,26.0,30,0.00,,,0.00,904.000000,,2013-05-05 19:52:00,
2013-05-05 13:01:00,63.0,31.0,-100.00,NE,34,17.0,26.0,30,0.00,,,0.00,904.000000,,2013-05-05 20:01:00,
2013-05-05 13:11:00,63.0,31.0,-100.00,NE,34,17.0,26.0,30,0.00,,,0.00,904.000000,,2013-05-05 20:11:00,
2013-05-05 13:21:00,63.0,31.0,-100.00,NE,34,17.0,26.0,30,0.00,,,0.00,904.000000,,2013-05-05 20:21:00,
2013-05-05 13:31:00,63.0,31.0,-100.00,NE,34,17.0,26.0,30,0.00,,,0.00,904.000000,,2013-05-05 20:31:00,
2013-05-05 13:52:00,65.0,32.0,-100.00,NNE,32,12.0,26.0,29,0.00,,,0.00,925.000000,,2013-05-05 20:52:00,
2013-05-05 14:01:00,65.0,32.0,-100.00,NNE,32,12.0,26.0,29,0.00,,,0.00,925.000000,,2013-05-05 21:01:00,
2013-05-05 14:11:00,65.0,32.0,-100.00,NNE,32,12.0,26.0,29,0.00,,,0.00,925.000000,,2013-05-05 21:11:00,
2013-05-05 14:21:00,65.0,32.0,-100.00,NNE,32,12.0,26.0,29,0.00,,,0.00,925.000000,,2013-05-05 21:21:00,
2013-05-05 14:32:00,65.0,32.0,-100.00,NNE,32,12.0,26.0,29,0.00,,,0.00,925.000000,,2013-05-05 21:32:00,
2013-05-05 14:53:00,65.0,30.0,-100.00,NNE,29,16.0,26.0,27,0.00,,,0.00,893.000000,,2013-05-05 21:53:00,
2013-05-05 15:02:00,65.0,30.0,-100.00,NNE,29,16.0,26.0,27,0.00,,,0.00,893.000000,,2013-05-05 22:02:00,
2013-05-05 15:12:00,65.0,30.0,-100.00,NNE,29,16.0,26.0,27,0.00,,,0.00,893.000000,,2013-05-05 22:12:00,
2013-05-05 15:22:00,65.0,30.0,-100.00,NNE,29,16.0,26.0,27,0.00,,,0.00,893.000000,,2013-05-05 22:22:00,
2013-05-05 15:33:00,65.0,30.0,-100.00,NNE,29,16.0,26.0,27,0.00,,,0.00,893.000000,,2013-05-05 22:33:00,
2013-05-05 15:52:00,66.0,30.0,-100.00,NNE,29,13.0,25.0,26,0.00,,,0.00,808.000000,,2013-05-05 22:52:00,
2013-05-05 16:02:00,66.0,30.0,-100.00,NNE,29,13.0,25.0,26,0.00,,,0.00,808.000000,,2013-05-05 23:02:00,
2013-05-05 16:11:00,66.0,30.0,-100.00,NNE,29,13.0,25.0,26,0.00,,,0.00,808.000000,,2013-05-05 23:11:00,
2013-05-05 16:21:00,66.0,30.0,-100.00,NNE,29,13.0,25.0,26,0.00,,,0.00,808.000000,,2013-05-05 23:21:00,
2013-05-05 16:31:00,66.0,30.0,-100.00,NNE,29,13.0,25.0,26,0.00,,,0.00,808.000000,,2013-05-05 23:31:00,
2013-05-05 16:52:00,65.0,29.0,-100.00,NNE,32,15.0,25.0,26,0.00,,,0.00,374.000000,,2013-05-05 23:52:00,
2013-05-05 17:01:00,65.0,29.0,-100.00,NNE,32,15.0,25.0,26,0.00,,,0.00,374.000000,,2013-05-06 00:01:00,
2013-05-05 17:11:00,65.0,29.0,-100.00,NNE,32,15.0,25.0,26,0.00,,,0.00,374.000000,,2013-05-06 00:11:00,
2013-05-05 17:21:00,65.0,29.0,-100.00,NNE,32,15.0,25.0,26,0.00,,,0.00,374.000000,,2013-05-06 00:21:00,
2013-05-05 17:31:00,65.0,29.0,-100.00,NNE,32,15.0,25.0,26,0.00,,,0.00,374.000000,,2013-05-06 00:31:00,
2013-05-05 17:51:00,65.0,28.0,-100.00,ENE,61,13.0,24.0,25,0.00,,,0.00,478.000000,,2013-05-06 00:51:00,
2013-05-05 18:01:00,65.0,28.0,-100.00,ENE,61,13.0,24.0,25,0.00,,,0.00,478.000000,,2013-05-06 01:01:00,
2013-05-05 18:11:00,65.0,28.0,-100.00,ENE,61,13.0,24.0,25,0.00,,,0.00,478.000000,,2013-05-06 01:11:00,
2013-05-05 18:21:00,65.0,28.0,-100.00,ENE,61,13.0,24.0,25,0.00,,,0.00,478.000000,,2013-05-06 01:21:00,
2013-05-05 18:31:00,65.0,28.0,-100.00,ENE,61,13.0,24.0,25,0.00,,,0.00,478.000000,,2013-05-06 01:31:00,
2013-05-05 18:52:00,63.0,27.0,-100.00,NE,34,14.0,24.0,25,0.00,,,0.00,294.000000,,2013-05-06 01:52:00,
2013-05-05 19:01:00,63.0,27.0,-100.00,NE,34,14.0,24.0,25,0.00,,,0.00,294.000000,,2013-05-06 02:01:00,
2013-05-05 19:11:00,63.0,27.0,-100.00,NE,34,14.0,24.0,25,0.00,,,0.00,294.000000,,2013-05-06 02:11:00,
2013-05-05 19:21:00,63.0,27.0,-100.00,NE,34,14.0,24.0,25,0.00,,,0.00,294.000000,,2013-05-06 02:21:00,
2013-05-05 19:31:00,63.0,27.0,-100.00,NE,34,14.0,24.0,25,0.00,,,0.00,294.000000,,2013-05-06 02:31:00,
2013-05-05 19:52:00,61.0,26.0,-100.00,NE,46,16.0,27.0,26,0.00,,,0.00,110.000000,,2013-05-06 02:52:00,
2013-05-05 20:01:00,61.0,26.0,-100.00,NE,46,16.0,27.0,26,0.00,,,0.00,110.000000,,2013-05-06 03:01:00,
2013-05-05 20:11:00,61.0,26.0,-100.00,NE,46,16.0,27.0,26,0.00,,,0.00,110.000000,,2013-05-06 03:11:00,
2013-05-05 20:22:00,61.0,26.0,-100.00,NE,46,16.0,27.0,26,0.00,,,0.00,110.000000,,2013-05-06 03:22:00,
2013-05-05 20:33:00,61.0,26.0,-100.00,NE,46,16.0,27.0,26,0.00,,,0.00,110.000000,,2013-05-06 03:33:00,
2013-05-05 20:52:00,59.0,27.0,-100.00,NE,51,14.0,21.0,29,0.00,,,-99.99,10.000000,,2013-05-06 03:52:00,
2013-05-05 21:02:00,59.0,27.0,-100.00,NE,51,14.0,21.0,29,0.00,,,-99.99,10.000000,,2013-05-06 04:02:00,
2013-05-05 21:12:00,59.0,27.0,-100.00,NE,51,14.0,21.0,29,0.00,,,-99.99,10.000000,,2013-05-06 04:12:00,
2013-05-05 21:23:00,59.0,27.0,-100.00,NE,51,14.0,21.0,29,0.00,,,-99.99,10.000000,,2013-05-06 04:23:00,
2013-05-05 21:32:00,59.0,27.0,-100.00,NE,51,14.0,21.0,29,0.00,,,-99.99,10.000000,,2013-05-06 04:32:00,
2013-05-05 21:53:00,59.0,30.0,-100.00,NE,46,15.0,22.0,33,0.00,,,0.00,0.000000,,2013-05-06 04:53:00,
2013-05-05 22:02:00,59.0,30.0,-100.00,NE,46,15.0,22.0,33,0.00,,,0.00,0.000000,,2013-05-06 05:02:00,
2013-05-05 22:12:00,59.0,30.0,-100.00,NE,46,15.0,22.0,33,0.00,,,0.00,0.000000,,2013-05-06 05:12:00,
2013-05-05 22:22:00,59.0,30.0,-100.00,NE,46,15.0,22.0,33,0.00,,,0.00,0.000000,,2013-05-06 05:22:00,
2013-05-05 22:32:00,59.0,30.0,-100.00,NE,46,15.0,22.0,33,0.00,,,0.00,0.000000,,2013-05-06 05:32:00,
2013-05-05 22:52:00,59.0,31.0,-100.00,NE,42,16.0,22.0,34,0.00,,,0.00,0.000000,,2013-05-06 05:52:00,
2013-05-05 23:02:00,59.0,31.0,-100.00,NE,42,16.0,22.0,34,0.00,,,0.00,0.000000,,2013-05-06 06:02:00,
2013-05-05 23:12:00,59.0,31.0,-100.00,NE,42,16.0,22.0,34,0.00,,,0.00,0.000000,,2013-05-06 06:12:00,
2013-05-05 23:21:00,59.0,31.0,-100.00,NE,42,16.0,22.0,34,0.00,,,0.00,0.000000,,2013-05-06 06:21:00,
2013-05-05 23:31:00,59.0,31.0,-100.00,NE,42,16.0,22.0,34,0.00,,,0.00,0.000000,,2013-05-06 06:31:00,
2013-05-05 23:52:00,59.0,31.0,-100.00,NE,36,15.0,24.0,34,0.00,,,0.00,0.000000,,2013-05-06 06:52:00,